Time;durP1;ratioP1;P1;durP2;ratioP2;P2;SDS_P1;SDS_P2;PMS_P1;PMS_P2;Temp;Humidity;BMP_temperature;BMP_pressure;BME280_temperature;BME280_humidity;BME280_pressure;Samples;Min_cycle;Max_cycle;Signal;HPM_P1;HPM_P2
2022/05/26 00:02:25;;;;;;;24.80;7.13;;;564.10;2432.00;;;;;;5050265;28;20116;-78
2022/05/26 00:04:51;;;;;;;17.63;6.40;;;564.00;2432.00;;;;;;5050194;28;20480;-78
2022/05/26 00:07:17;;;;;;;20.73;5.13;;;563.90;2432.00;;;;;;5047484;28;20075;-77
2022/05/26 00:09:43;;;;;;;11.27;5.22;;;563.70;2432.00;;;;;;5050804;28;20025;-76
2022/05/26 00:12:13;;;;;;;15.32;6.18;;;563.70;2432.00;;;;;;5050303;28;20028;-78
2022/05/26 00:14:40;;;;;;;19.55;6.18;;;563.70;2432.00;;;;;;5050807;28;20053;-77
2022/05/26 00:17:06;;;;;;;29.25;7.00;;;563.60;2432.00;;;;;;5050580;28;20025;-78
2022/05/26 00:19:33;;;;;;;23.45;6.53;;;563.60;2432.00;;;;;;5075939;28;20422;-77
2022/05/26 00:21:58;;;;;;;33.72;6.93;;;563.60;2432.00;;;;;;5063985;28;20029;-77
2022/05/26 00:24:24;;;;;;;18.90;7.85;;;563.50;2432.00;;;;;;5064388;28;20032;-77
2022/05/26 00:26:51;;;;;;;22.45;6.53;;;563.60;2432.00;;;;;;5041535;28;20026;-76
2022/05/26 00:29:17;;;;;;;26.83;6.20;;;563.60;2432.00;;;;;;5063283;28;20049;-77
2022/05/26 00:31:43;;;;;;;33.58;7.47;;;563.50;2432.00;;;;;;5031767;28;20488;-76
2022/05/26 00:34:09;;;;;;;27.98;7.00;;;563.60;2432.00;;;;;;5050171;28;20037;-77
2022/05/26 00:36:38;;;;;;;32.78;6.68;;;563.60;2432.00;;;;;;5052588;28;20028;-77
2022/05/26 00:39:13;;;;;;;28.20;7.20;;;563.60;2432.00;;;;;;5085016;28;20029;-78
2022/05/26 00:41:48;;;;;;;22.45;7.15;;;563.60;2432.00;;;;;;5085095;28;20029;-76
2022/05/26 00:44:17;;;;;;;24.30;6.85;;;563.60;2432.00;;;;;;5052951;28;20029;-76
2022/05/26 00:46:49;;;;;;;27.55;8.10;;;563.70;2432.00;;;;;;5050813;28;20027;-78
2022/05/26 00:49:50;;;;;;;33.28;8.48;;;563.60;2432.00;;;;;;5050678;28;20025;-77
2022/05/26 00:52:35;;;;;;;25.90;8.05;;;563.60;2432.00;;;;;;5063293;28;20412;-77
2022/05/26 00:55:07;;;;;;;32.28;7.50;;;563.60;2432.00;;;;;;5050231;28;20045;-76
2022/05/26 00:57:49;;;;;;;27.85;7.15;;;563.60;2432.00;;;;;;5050224;28;20066;-76
2022/05/26 01:00:25;;;;;;;30.50;7.03;;;563.60;2432.00;;;;;;5042872;28;20048;-78
2022/05/26 01:03:18;;;;;;;28.50;6.95;;;563.60;2432.00;;;;;;5040315;28;20029;-78
2022/05/26 01:06:09;;;;;;;23.10;7.10;;;563.70;2432.00;;;;;;5051951;28;20024;-75
2022/05/26 01:08:40;;;;;;;24.73;6.35;;;563.70;2432.00;;;;;;5050447;28;20040;-77
2022/05/26 01:11:07;;;;;;;29.30;8.23;;;563.70;2432.00;;;;;;5050495;28;20029;-76
2022/05/26 01:13:39;;;;;;;32.67;7.38;;;563.80;2432.00;;;;;;5050309;28;20020;-78
2022/05/26 01:16:34;;;;;;;29.20;6.25;;;563.70;2432.00;;;;;;5054495;28;20060;-77
2022/05/26 01:19:27;;;;;;;25.05;6.30;;;563.70;2432.00;;;;;;5075950;28;20369;-76
2022/05/26 01:22:05;;;;;;;23.13;7.28;;;563.50;2432.00;;;;;;5030550;28;20043;-79
2022/05/26 01:25:16;;;;;;;23.33;7.93;;;563.50;2432.00;;;;;;5032977;28;20075;-77
2022/05/26 01:27:45;;;;;;;33.63;8.45;;;563.50;2432.00;;;;;;5035245;28;20523;-78
2022/05/26 01:30:23;;;;;;;25.38;7.32;;;563.50;2432.00;;;;;;5041948;28;20025;-77
2022/05/26 01:33:02;;;;;;;24.90;6.88;;;563.50;2432.00;;;;;;5055259;28;20044;-78
2022/05/26 01:35:41;;;;;;;30.63;6.85;;;563.60;2432.00;;;;;;5053926;28;20071;-75
2022/05/26 01:38:36;;;;;;;36.90;7.47;;;563.50;2432.00;;;;;;5055572;28;20021;-76
2022/05/26 01:41:12;;;;;;;25.10;8.43;;;563.50;2432.00;;;;;;5050671;28;20030;-75
2022/05/26 01:43:58;;;;;;;32.97;7.88;;;563.50;2432.00;;;;;;5070383;28;20029;-76
2022/05/26 01:46:41;;;;;;;27.15;8.02;;;563.60;2432.00;;;;;;5022960;28;20431;-75
2022/05/26 01:49:28;;;;;;;20.98;7.47;;;563.40;2432.00;;;;;;5035077;28;20109;-76
2022/05/26 01:52:06;;;;;;;30.52;7.75;;;563.20;2432.00;;;;;;5053619;28;20028;-76
2022/05/26 01:54:56;;;;;;;40.67;8.93;;;538.50;2406.40;;;;;;5047244;28;20402;-77
2022/05/26 01:57:44;;;;;;;27.55;6.95;;;538.50;2406.40;;;;;;5087205;28;20029;-77
2022/05/26 02:00:15;;;;;;;41.90;8.43;;;538.20;2406.40;;;;;;5086222;28;20025;-77
2022/05/26 02:02:50;;;;;;;34.72;7.35;;;538.30;2406.40;;;;;;5053106;28;20025;-77
2022/05/26 02:05:21;;;;;;;24.35;7.82;;;538.20;2406.40;;;;;;5054734;28;20025;-77
2022/05/26 02:08:02;;;;;;;29.23;9.05;;;538.00;2406.40;;;;;;5054617;28;20017;-78
2022/05/26 02:10:43;;;;;;;23.77;7.57;;;538.10;2406.40;;;;;;5056347;28;20036;-77
2022/05/26 02:13:14;;;;;;;22.48;6.95;;;538.00;2406.40;;;;;;5052688;28;21936;-76
2022/05/26 02:15:49;;;;;;;28.23;8.02;;;538.00;2406.40;;;;;;5051347;28;20438;-77
2022/05/26 02:18:27;;;;;;;33.40;8.13;;;538.00;2406.40;;;;;;5052905;28;20498;-79
2022/05/26 02:21:05;;;;;;;28.02;8.88;;;537.90;2406.40;;;;;;5085122;28;20511;-79
2022/05/26 02:23:37;;;;;;;27.27;8.32;;;537.80;2406.40;;;;;;5050907;28;20112;-78
2022/05/26 02:26:04;;;;;;;27.92;7.43;;;537.80;2406.40;;;;;;5053622;28;20526;-79
2022/05/26 02:31:19;;;;;;;42.17;8.63;;;537.70;2406.40;;;;;;5054178;28;20040;-78
2022/05/26 02:33:45;;;;;;;37.95;18.70;;;537.60;2406.40;;;;;;5073147;28;20049;-76
2022/05/26 02:36:12;;;;;;;21.40;7.88;;;512.80;2380.80;;;;;;5052174;28;20055;-78
2022/05/26 02:38:39;;;;;;;20.55;7.78;;;512.80;2380.80;;;;;;5054234;28;20025;-78
2022/05/26 02:41:04;;;;;;;34.70;7.90;;;512.70;2380.80;;;;;;5052637;28;20043;-78
2022/05/26 02:43:33;;;;;;;24.38;8.25;;;512.60;2380.80;;;;;;5052714;28;20103;-77
2022/05/26 02:46:23;;;;;;;19.48;7.57;;;512.50;2380.80;;;;;;5053803;28;20476;-77
2022/05/26 02:48:55;;;;;;;29.00;7.55;;;512.70;2380.80;;;;;;5051961;28;20064;-78
2022/05/26 02:51:24;;;;;;;27.23;12.00;;;512.80;2380.80;;;;;;5053744;28;20504;-76
2022/05/26 02:54:02;;;;;;;39.00;14.10;;;512.90;2380.80;;;;;;5054009;28;20036;-79
2022/05/26 02:56:49;;;;;;;24.85;11.15;;;512.90;2380.80;;;;;;5052361;28;20075;-78
2022/05/26 02:59:27;;;;;;;26.38;11.70;;;537.60;2406.40;;;;;;5054258;28;20029;-80
2022/05/26 03:02:09;;;;;;;32.15;9.63;;;537.60;2406.40;;;;;;5081164;28;20121;-78
2022/05/26 03:04:41;;;;;;;32.65;8.90;;;537.60;2406.40;;;;;;5053535;28;20043;-80
2022/05/26 03:07:15;;;;;;;20.48;8.88;;;537.60;2406.40;;;;;;5052458;28;20078;-78
2022/05/26 03:09:42;;;;;;;26.02;8.98;;;537.60;2406.40;;;;;;5059535;28;20052;-79
2022/05/26 03:12:33;;;;;;;21.38;9.10;;;537.60;2406.40;;;;;;5056001;28;20032;-78
2022/05/26 03:14:59;;;;;;;19.75;8.77;;;537.60;2406.40;;;;;;5051923;28;20512;-77
2022/05/26 03:17:26;;;;;;;20.83;7.97;;;512.80;2380.80;;;;;;5051737;28;20452;-79
2022/05/26 03:19:51;;;;;;;19.35;7.13;;;512.80;2380.80;;;;;;5052550;28;20025;-79
2022/05/26 03:22:18;;;;;;;25.80;8.02;;;512.60;2380.80;;;;;;5053297;28;20507;-77
2022/05/26 03:24:44;;;;;;;23.30;7.18;;;512.40;2380.80;;;;;;5053175;28;20021;-77
2022/05/26 03:27:10;;;;;;;18.60;7.00;;;512.50;2380.80;;;;;;5051430;28;20029;-78
2022/05/26 03:29:35;;;;;;;26.52;7.50;;;512.30;2380.80;;;;;;5053111;28;20028;-76
2022/05/26 03:32:01;;;;;;;17.63;6.80;;;512.10;2380.80;;;;;;5051048;28;20029;-78
2022/05/26 03:42:44;;;;;;;17.52;7.38;;;512.10;2380.80;;;;;;5052746;28;20036;-76
2022/05/26 03:45:11;;;;;;;23.50;9.40;;;512.00;2380.80;;;;;;5084839;28;20407;-77
2022/05/26 03:47:36;;;;;;;32.97;9.32;;;512.00;2380.80;;;;;;5051553;28;20021;-76
2022/05/26 03:50:02;;;;;;;28.65;8.25;;;487.00;2380.80;;;;;;5052966;28;20025;-76
2022/05/26 03:52:28;;;;;;;19.25;7.55;;;487.00;2380.80;;;;;;5051194;28;20122;-77
2022/05/26 03:54:54;;;;;;;23.65;7.03;;;486.80;2380.80;;;;;;5051318;28;20404;-77
2022/05/26 03:57:27;;;;;;;15.05;6.93;;;486.70;2380.80;;;;;;5052553;28;20025;-77
2022/05/26 03:59:54;;;;;;;23.38;8.75;;;486.80;2380.80;;;;;;5051012;28;20059;-79
2022/05/26 04:02:19;;;;;;;18.65;9.90;;;486.90;2380.80;;;;;;5050756;28;20356;-77
2022/05/26 04:04:45;;;;;;;23.30;9.05;;;487.20;2380.80;;;;;;5051909;28;20025;-77
2022/05/26 04:07:12;;;;;;;24.73;8.65;;;512.00;2380.80;;;;;;5051055;28;20027;-78
2022/05/26 04:09:39;;;;;;;26.33;9.82;;;512.10;2380.80;;;;;;5050547;28;20044;-79
2022/05/26 04:12:06;;;;;;;26.35;10.18;;;512.20;2380.80;;;;;;5051845;28;20029;-79
2022/05/26 04:14:33;;;;;;;22.17;10.77;;;512.10;2380.80;;;;;;5051833;28;20064;-79
2022/05/26 04:16:59;;;;;;;28.33;13.48;;;512.20;2380.80;;;;;;5052276;28;20095;-79
2022/05/26 04:19:25;;;;;;;27.70;15.02;;;512.20;2380.80;;;;;;5051555;28;20031;-77
2022/05/26 04:24:35;;;;;;;22.23;16.88;;;512.10;2380.80;;;;;;5052282;28;20075;-80
2022/05/26 04:27:02;;;;;;;27.02;17.75;;;512.20;2380.80;;;;;;5052246;28;20456;-78
2022/05/26 04:29:27;;;;;;;27.27;18.67;;;512.20;2380.80;;;;;;5051513;28;20045;-77
2022/05/26 04:31:53;;;;;;;20.70;18.70;;;512.20;2380.80;;;;;;5051352;28;20518;-78
2022/05/26 04:34:19;;;;;;;23.42;19.13;;;512.20;2380.80;;;;;;5031757;28;20037;-78
2022/05/26 04:36:45;;;;;;;25.88;21.20;;;512.40;2380.80;;;;;;5032159;28;20461;-77
2022/05/26 04:39:11;;;;;;;28.15;19.90;;;512.10;2380.80;;;;;;5031614;28;20025;-79
2022/05/26 04:41:37;;;;;;;27.27;20.23;;;512.40;2380.80;;;;;;5031671;28;20024;-75
2022/05/26 04:44:02;;;;;;;33.85;22.33;;;512.40;2380.80;;;;;;5036122;28;20032;-78
2022/05/26 04:46:28;;;;;;;26.70;22.00;;;512.00;2380.80;;;;;;5050527;28;20423;-78
2022/05/26 04:48:54;;;;;;;32.78;22.10;;;512.10;2380.80;;;;;;5051324;28;20479;-76
2022/05/26 04:51:19;;;;;;;30.67;22.92;;;512.10;2380.80;;;;;;5051491;28;20064;-78
2022/05/26 04:53:45;;;;;;;28.65;22.77;;;512.10;2380.80;;;;;;5051502;28;20074;-78
2022/05/26 04:56:11;;;;;;;25.85;22.75;;;512.20;2380.80;;;;;;5051341;28;20025;-78
2022/05/26 04:58:37;;;;;;;34.65;23.50;;;512.10;2380.80;;;;;;5052095;28;20963;-78
2022/05/26 05:01:13;;;;;;;30.30;20.85;;;512.20;2380.80;;;;;;5055463;28;20028;-77
2022/05/26 05:03:40;;;;;;;22.88;17.00;;;512.20;2380.80;;;;;;5054051;28;20029;-78
2022/05/26 05:06:05;;;;;;;20.52;14.43;;;512.00;2380.80;;;;;;5054287;28;20407;-76
2022/05/26 05:08:31;;;;;;;26.85;21.75;;;512.00;2380.80;;;;;;5055566;28;20025;-76
2022/05/26 05:10:57;;;;;;;24.73;16.92;;;512.00;2380.80;;;;;;5054828;28;20028;-75
2022/05/26 05:13:23;;;;;;;25.42;19.40;;;512.00;2380.80;;;;;;5054653;28;20052;-76
2022/05/26 05:16:04;;;;;;;16.80;10.88;;;512.10;2380.80;;;;;;5087602;28;20037;-77
2022/05/26 05:18:30;;;;;;;16.15;11.70;;;487.20;2380.80;;;;;;5052663;28;20025;-76
2022/05/26 05:21:02;;;;;;;18.80;13.52;;;487.20;2380.80;;;;;;5055699;28;20025;-77
2022/05/26 05:23:28;;;;;;;12.38;9.85;;;512.00;2380.80;;;;;;5055643;28;20494;-76
2022/05/26 05:25:56;;;;;;;17.67;11.82;;;512.00;2380.80;;;;;;5053864;28;20465;-79
2022/05/26 05:28:31;;;;;;;12.50;9.25;;;512.10;2380.80;;;;;;5053580;28;20210;-76
2022/05/26 05:31:02;;;;;;;17.90;12.40;;;487.30;2380.80;;;;;;5054955;28;20021;-78
2022/05/26 05:33:32;;;;;;;20.27;12.20;;;512.10;2380.80;;;;;;5087454;28;20021;-75
2022/05/26 05:36:06;;;;;;;14.82;12.60;;;512.00;2380.80;;;;;;5053845;28;20048;-77
2022/05/26 05:38:34;;;;;;;8.45;7.00;;;512.10;2380.80;;;;;;5087652;28;20021;-74
2022/05/26 05:41:03;;;;;;;17.98;12.15;;;512.10;2380.80;;;;;;5054889;28;20472;-75
2022/05/26 05:43:31;;;;;;;20.00;11.40;;;512.30;2380.80;;;;;;5053864;28;20032;-78
2022/05/26 05:45:57;;;;;;;16.50;11.32;;;;;;;;;;5054590;28;20527;-75
2022/05/26 05:48:23;;;;;;;18.42;10.98;;;512.90;2380.80;;;;;;5054961;28;20029;-77
2022/05/26 05:50:49;;;;;;;13.32;10.45;;;512.80;2380.80;;;;;;5053470;28;20496;-77
2022/05/26 05:53:18;;;;;;;16.00;9.75;;;512.90;2380.80;;;;;;5054888;28;20025;-76
2022/05/26 05:55:43;;;;;;;17.75;10.60;;;512.70;2380.80;;;;;;5053207;28;20480;-77
2022/05/26 05:58:10;;;;;;;11.57;9.25;;;537.60;2406.40;;;;;;5087231;28;20075;-80
2022/05/26 06:00:36;;;;;;;12.15;10.15;;;537.60;2406.40;;;;;;5053750;28;20112;-76
2022/05/26 06:03:03;;;;;;;13.25;8.43;;;537.90;2406.40;;;;;;5053488;28;20021;-76
2022/05/26 06:05:29;;;;;;;14.63;10.73;;;537.80;2406.40;;;;;;5054652;28;20029;-77
2022/05/26 06:07:55;;;;;;;10.32;9.30;;;538.10;2406.40;;;;;;5054131;28;20017;-76
2022/05/26 06:10:21;;;;;;;14.18;9.02;;;538.00;2406.40;;;;;;5052910;28;20028;-78
2022/05/26 06:12:47;;;;;;;12.07;8.52;;;538.00;2406.40;;;;;;5054295;28;20099;-77
2022/05/26 06:15:13;;;;;;;14.90;11.60;;;538.00;2406.40;;;;;;5054267;28;20573;-76
2022/05/26 06:17:39;;;;;;;12.00;9.93;;;563.20;2432.00;;;;;;5086422;28;20040;-76
2022/05/26 06:20:06;;;;;;;11.43;9.88;;;563.50;2432.00;;;;;;5054116;28;20025;-77
2022/05/26 06:22:35;;;;;;;12.82;10.45;;;563.50;2432.00;;;;;;5053830;28;20451;-77
2022/05/26 06:25:02;;;;;;;14.50;9.00;;;563.50;2432.00;;;;;;5054049;28;20025;-76
2022/05/26 06:30:16;;;;;;;10.55;9.25;;;563.60;2432.00;;;;;;5054093;28;20064;-75
2022/05/26 06:38:28;;;;;;;14.55;10.68;;;589.30;2432.00;;;;;;5053418;28;20036;-78
2022/05/26 06:40:54;;;;;;;12.45;10.30;;;614.40;2432.00;;;;;;5053759;28;20021;-76
2022/05/26 06:43:20;;;;;;;18.08;11.43;;;614.70;2432.00;;;;;;5053548;28;20035;-77
2022/05/26 06:45:47;;;;;;;13.65;11.63;;;614.60;2432.00;;;;;;5086017;28;20025;-74
2022/05/26 06:48:14;;;;;;;12.50;10.90;;;614.70;2432.00;;;;;;5052463;28;20025;-76
2022/05/26 06:50:40;;;;;;;14.30;10.68;;;;;;;;;;5054607;28;20121;-77
2022/05/26 06:53:06;;;;;;;12.18;8.77;;;614.50;2432.00;;;;;;5056925;28;20013;-75
2022/05/26 06:55:32;;;;;;;11.52;8.35;;;614.50;2432.00;;;;;;5056533;28;20526;-74
2022/05/26 06:57:58;;;;;;;15.30;11.25;;;589.60;2432.00;;;;;;5055057;28;20021;-79
2022/05/26 07:00:24;;;;;;;10.60;7.93;;;589.40;2432.00;;;;;;5052776;28;20029;-78
2022/05/26 07:02:52;;;;;;;12.75;9.93;;;589.10;2432.00;;;;;;5053960;28;20419;-77
2022/05/26 07:05:18;;;;;;;14.48;10.70;;;589.10;2432.00;;;;;;5052347;28;20813;-78
2022/05/26 07:07:44;;;;;;;14.27;12.43;;;589.00;2432.00;;;;;;5052700;28;20029;-78
2022/05/26 07:10:13;;;;;;;18.33;16.20;;;589.30;2432.00;;;;;;5086046;28;20032;-77
2022/05/26 07:12:40;;;;;;;14.30;8.88;;;589.60;2432.00;;;;;;5053844;28;20021;-78
2022/05/26 07:15:07;;;;;;;9.30;8.13;;;589.10;2432.00;;;;;;5053578;28;20468;-77
2022/05/26 07:17:33;;;;;;;13.45;9.07;;;614.40;2432.00;;;;;;5053423;28;20448;-78
2022/05/26 07:19:59;;;;;;;15.25;7.97;;;;;;;;;;5052169;28;20093;-78
2022/05/26 07:22:25;;;;;;;10.23;5.50;;;;;;;;;;5052080;28;20020;-78
2022/05/26 07:24:52;;;;;;;5.22;4.18;;;;;;;;;;5052383;28;20030;-78
2022/05/26 07:27:19;;;;;;;9.73;5.25;;;;;;;;;;5052157;28;20021;-78
2022/05/26 07:29:45;;;;;;;5.47;3.00;;;;;;;;;;5053527;28;20029;-78
2022/05/26 07:32:11;;;;;;;9.85;6.72;;;;;;;;;;5052148;28;20388;-79
2022/05/26 07:34:37;;;;;;;9.75;5.38;;;;;;;;;;5052705;28;20291;-79
2022/05/26 07:42:35;;;;;;;16.10;8.68;;;;;;;;;;5053723;28;20128;-77
2022/05/26 07:45:02;;;;;;;9.85;7.07;;;;;;;;;;5051834;28;20025;-76
2022/05/26 07:47:28;;;;;;;12.10;8.15;;;;;;;;;;5053454;28;20013;-78
2022/05/26 07:49:55;;;;;;;13.13;5.28;;;;;;;;;;5052862;28;20021;-78
2022/05/26 07:52:22;;;;;;;14.18;7.07;;;;;;;;;;5053613;28;20056;-77
2022/05/26 07:54:48;;;;;;;10.77;8.55;;;;;;;;;;5051822;28;20059;-78
2022/05/26 07:57:22;;;;;;;8.45;3.83;;;;;;;;;;5053236;28;20051;-77
2022/05/26 07:59:48;;;;;;;15.30;9.00;;;;;;;;;;5052706;28;20034;-76
2022/05/26 08:02:14;;;;;;;26.70;14.45;;;;;;;;;;5052123;28;20461;-77
2022/05/26 08:04:40;;;;;;;14.85;5.63;;;;;;;;;;5050961;28;20039;-77
2022/05/26 08:07:06;;;;;;;15.43;10.32;;;;;;;;;;5051079;28;20031;-78
2022/05/26 08:09:32;;;;;;;10.15;5.75;;;;;;;;;;5051095;28;20118;-79
2022/05/26 08:11:58;;;;;;;8.50;5.22;;;;;;;;;;5052092;28;20017;-78
2022/05/26 08:14:25;;;;;;;5.57;4.40;;;;;;;;;;5050813;28;20040;-78
2022/05/26 08:16:51;;;;;;;9.93;3.33;;;640.00;2432.00;;;;;;5050932;28;20032;-79
2022/05/26 08:19:18;;;;;;;12.20;7.05;;;614.60;2432.00;;;;;;5050871;28;20021;-78
2022/05/26 08:21:43;;;;;;;5.18;3.60;;;614.80;2432.00;;;;;;5052380;28;20032;-80
2022/05/26 08:24:09;;;;;;;12.15;4.70;;;614.80;2432.00;;;;;;5050582;28;20025;-77
2022/05/26 08:26:35;;;;;;;6.40;4.75;;;615.10;2432.00;;;;;;5050910;28;20090;-78
2022/05/26 08:29:01;;;;;;;11.48;4.75;;;614.80;2432.00;;;;;;5052482;28;20496;-78
2022/05/26 08:31:27;;;;;;;6.28;2.97;;;614.50;2432.00;;;;;;5050940;28;20040;-76
2022/05/26 08:33:53;;;;;;;3.95;2.25;;;589.30;2432.00;;;;;;5051118;28;20033;-77
2022/05/26 08:36:23;;;;;;;2.55;1.75;;;589.40;2432.00;;;;;;5051385;28;20104;-79
2022/05/26 08:38:49;;;;;;;9.32;2.53;;;614.70;2432.00;;;;;;5051882;28;20032;-78
2022/05/26 08:41:21;;;;;;;11.00;3.55;;;615.20;2432.00;;;;;;5050426;28;20540;-75
2022/05/26 08:43:51;;;;;;;4.15;2.28;;;;;;;;;;5050555;28;20111;-75
2022/05/26 08:46:20;;;;;;;5.63;2.53;;;;;;;;;;5051526;28;20025;-75
2022/05/26 08:48:48;;;;;;;7.05;2.40;;;;;;;;;;5051558;28;20025;-76
2022/05/26 08:51:19;;;;;;;3.25;2.13;;;;;;;;;;5051899;28;20024;-76
2022/05/26 08:53:45;;;;;;;6.20;2.42;;;;;;;;;;5051622;28;20025;-76
2022/05/26 08:56:12;;;;;;;5.53;2.17;;;;;;;;;;5050500;28;20026;-75
2022/05/26 08:58:49;;;;;;;5.38;2.78;;;;;;;;;;5050022;28;20056;-77
2022/05/26 09:01:16;;;;;;;5.60;2.88;;;;;;;;;;5050185;28;20031;-75
2022/05/26 09:03:42;;;;;;;6.97;2.40;;;;;;;;;;5051700;28;20096;-74
2022/05/26 09:06:16;;;;;;;5.53;2.92;;;;;;;;;;5051467;28;20029;-75
2022/05/26 09:14:21;;;;;;;3.05;1.83;;;;;;;;;;5051452;28;20045;-76
2022/05/26 09:22:44;;;;;;;7.70;3.20;;;;;;;;;;5051619;28;19974;-76
2022/05/26 09:25:32;;;;;;;4.28;2.08;;;;;;;;;;5051846;28;20063;-75
2022/05/26 09:27:58;;;;;;;4.65;1.95;;;615.10;2432.00;;;;;;5051651;28;20098;-78
2022/05/26 09:30:27;;;;;;;6.15;2.80;;;614.80;2432.00;;;;;;5049894;28;20480;-78
2022/05/26 09:32:54;;;;;;;3.78;1.73;;;614.80;2432.00;;;;;;5049933;28;20044;-78
2022/05/26 09:35:19;;;;;;;3.40;1.55;;;614.90;2432.00;;;;;;5049738;28;20041;-77
2022/05/26 09:37:51;;;;;;;6.25;1.98;;;;;;;;;;5050022;28;20025;-76
2022/05/26 09:40:19;;;;;;;2.58;1.40;;;;;;;;;;5051165;28;20108;-77
2022/05/26 09:42:45;;;;;;;2.20;1.65;;;;;;;;;;5051446;28;20078;-77
2022/05/26 09:45:13;;;;;;;3.08;1.60;;;;;;;;;;5052743;28;20051;-77
2022/05/26 09:47:45;;;;;;;2.85;1.60;;;;;;;;;;5054558;28;20028;-78
2022/05/26 09:50:31;;;;;;;2.15;1.58;;;691.60;2201.60;;;;;;5054740;28;20049;-82
2022/05/26 09:52:57;;;;;;;2.70;0.95;;;;;;;;;;5053082;28;20048;-77
2022/05/26 09:55:32;;;;;;;3.95;2.17;;;;;;;;;;5053735;28;20028;-77
2022/05/26 09:58:05;;;;;;;9.93;6.97;;;;;;;;;;5053722;28;20025;-76
2022/05/26 10:00:50;;;;;;;3.30;1.67;;;;;;;;;;5052978;28;20437;-78
2022/05/26 10:03:22;;;;;;;5.50;1.80;;;;;;;;;;5054369;28;20028;-76
2022/05/26 10:05:57;;;;;;;4.50;1.58;;;;;;;;;;5053252;28;20025;-79
2022/05/26 10:08:35;;;;;;;3.72;1.70;;;;;;;;;;5054161;28;20052;-78
2022/05/26 10:11:09;;;;;;;9.15;2.95;;;;;;;;;;5052985;28;20029;-77
2022/05/26 10:13:48;;;;;;;4.78;2.70;;;;;;;;;;5033864;28;20021;-78
2022/05/26 10:16:40;;;;;;;3.28;2.00;;;691.20;2099.20;;;;;;5049475;28;20056;-78
2022/05/26 10:19:34;;;;;;;4.70;2.13;;;666.00;2176.00;;;;;;5038258;28;20067;-78
2022/05/26 10:22:08;;;;;;;2.25;1.55;;;691.30;2048.00;;;;;;5053617;28;20091;-80
2022/05/26 10:24:52;;;;;;;3.17;2.10;;;666.40;2073.60;;;;;;5054327;28;20048;-78
2022/05/26 10:27:24;;;;;;;7.57;2.63;;;;;;;;;;5053712;28;20021;-78
2022/05/26 10:30:10;;;;;;;2.58;1.15;;;;;;;;;;5053567;28;20047;-78
2022/05/26 10:32:57;;;;;;;3.30;1.35;;;640.80;2432.00;;;;;;5042605;28;20037;-77
2022/05/26 10:35:35;;;;;;;5.85;1.80;;;640.30;2432.00;;;;;;5053684;28;20139;-78
2022/05/26 10:38:04;;;;;;;5.90;1.88;;;;;;;;;;5053582;28;20116;-78
2022/05/26 10:40:46;;;;;;;4.13;2.20;;;;;;;;;;5052039;28;20021;-77
2022/05/26 10:43:21;;;;;;;5.95;2.53;;;666.00;2329.60;;;;;;5050144;28;20033;-75
2022/05/26 10:45:48;;;;;;;9.85;3.70;;;;;;;;;;5053075;28;20029;-77
2022/05/26 10:48:29;;;;;;;6.28;2.22;;;;;;;;;;5053701;28;20017;-77
2022/05/26 10:51:02;;;;;;;3.15;1.73;;;;;;;;;;5053515;28;20029;-76
2022/05/26 10:53:28;;;;;;;6.18;2.22;;;;;;;;;;5053434;28;20116;-76
2022/05/26 10:56:21;;;;;;;2.92;1.80;;;;;;;;;;5052684;28;20112;-76
2022/05/26 10:58:50;;;;;;;6.78;2.97;;;;;;;;;;5052071;28;20123;-77
2022/05/26 11:01:25;;;;;;;4.25;1.80;;;;;;;;;;5052963;28;20025;-78
2022/05/26 11:03:54;;;;;;;4.35;2.05;;;;;;;;;;5051918;28;20383;-75
2022/05/26 11:06:27;;;;;;;4.82;1.58;;;;;;;;;;5051714;28;20021;-75
2022/05/26 11:08:57;;;;;;;5.85;1.95;;;;;;;;;;5051404;28;20025;-77
2022/05/26 11:11:29;;;;;;;3.60;1.75;;;;;;;;;;5052964;28;20024;-78
2022/05/26 11:17:21;;;;;;;11.80;7.30;;;;;;;;;;5052582;28;20031;-78
2022/05/26 11:20:12;;;;;;;4.45;1.95;;;;;;;;;;5052833;28;20051;-77
2022/05/26 11:22:41;;;;;;;3.90;2.40;;;;;;;;;;5044159;28;20033;-78
2022/05/26 11:25:08;;;;;;;5.50;3.22;;;;;;;;;;5051479;28;20482;-77
2022/05/26 11:27:36;;;;;;;8.85;3.03;;;;;;;;;;5051386;28;20048;-81
2022/05/26 11:36:07;;;;;;;9.20;2.45;;;;;;;;;;5052368;28;20482;-79
2022/05/26 11:38:40;;;;;;;7.47;1.95;;;;;;;;;;5051194;28;20440;-77
2022/05/26 11:41:08;;;;;;;7.55;3.63;;;;;;;;;;5052579;28;20025;-79
2022/05/26 11:44:13;;;;;;;4.55;2.42;;;;;;;;;;5052521;28;20104;-78
2022/05/26 11:46:47;;;;;;;10.48;2.67;;;;;;;;;;5029889;28;20116;-79
2022/05/26 11:49:51;;;;;;;3.65;1.70;;;;;;;;;;5030122;28;20083;-79
2022/05/26 11:52:23;;;;;;;4.65;1.60;;;;;;;;;;5025697;28;20077;-79
2022/05/26 11:54:57;;;;;;;6.77;3.00;;;;;;;;;;5029812;28;20037;-79
2022/05/26 11:57:39;;;;;;;3.33;1.70;;;;;;;;;;5042383;28;20422;-78
2022/05/26 12:00:17;;;;;;;4.05;1.60;;;;;;;;;;5050776;28;20086;-80
2022/05/26 12:02:45;;;;;;;4.82;2.15;;;;;;;;;;5052452;28;20057;-77
2022/05/26 12:05:34;;;;;;;6.57;2.45;;;;;;;;;;5052118;28;20025;-77
2022/05/26 12:08:01;;;;;;;4.28;2.20;;;;;;;;;;5046764;28;20138;-78
2022/05/26 12:10:28;;;;;;;2.33;1.50;;;;;;;;;;5052131;28;20035;-80
2022/05/26 12:13:13;;;;;;;4.20;2.00;;;;;;;;;;5050785;28;20043;-78
2022/05/26 12:15:59;;;;;;;3.05;1.45;;;;;;;;;;5051705;28;20043;-77
2022/05/26 12:18:36;;;;;;;7.35;2.00;;;;;;;;;;5051487;28;20017;-77
2022/05/26 12:21:15;;;;;;;4.82;2.45;;;717.20;1843.20;;;;;;5051839;28;20071;-79
2022/05/26 12:23:42;;;;;;;5.85;2.65;;;;;;;;;;5050535;28;20035;-77
2022/05/26 12:26:23;;;;;;;2.50;1.65;;;;;;;;;;5051726;28;20021;-77
2022/05/26 12:28:49;;;;;;;3.15;2.08;;;;;;;;;;5051882;28;20052;-76
2022/05/26 12:31:15;;;;;;;9.00;3.35;;;;;;;;;;5051648;28;20071;-80
2022/05/26 12:34:02;;;;;;;3.38;1.48;;;742.50;1689.60;;;;;;5051658;28;20017;-79
2022/05/26 12:36:34;;;;;;;4.68;2.05;;;;;;;;;;5051601;28;20051;-77
2022/05/26 12:39:19;;;;;;;5.20;1.98;;;;;;;;;;5050375;28;20025;-79
2022/05/26 12:42:00;;;;;;;6.93;3.22;;;;;;;;;;5051708;28;20025;-78
2022/05/26 12:44:26;;;;;;;5.00;2.42;;;;;;;;;;5051632;28;20064;-78
2022/05/26 12:47:08;;;;;;;2.72;1.70;;;;;;;;;;5050436;28;20017;-77
2022/05/26 12:49:54;;;;;;;4.57;1.50;;;;;;;;;;5050175;28;20024;-77
2022/05/26 12:52:20;;;;;;;3.08;1.60;;;;;;;;;;5051760;28;20025;-78
2022/05/26 12:54:59;;;;;;;6.78;2.22;;;;;;;;;;5050468;28;20033;-79
2022/05/26 12:57:26;;;;;;;6.22;2.00;;;691.80;1766.40;;;;;;5051872;28;20025;-79
2022/05/26 13:00:21;;;;;;;4.20;2.50;;;691.60;1792.00;;;;;;5050285;28;20044;-78
2022/05/26 13:02:49;;;;;;;3.28;1.50;;;;;;;;;;5051323;28;20508;-79
2022/05/26 13:05:16;;;;;;;7.15;1.55;;;;;;;;;;5055416;28;20028;-74
2022/05/26 13:07:46;;;;;;;4.43;1.80;;;;;;;;;;5056236;28;20476;-75
2022/05/26 13:10:14;;;;;;;3.13;1.90;;;691.30;1868.80;;;;;;5054186;28;20021;-75
2022/05/26 13:12:40;;;;;;;3.97;2.40;;;666.50;1894.40;;;;;;5053133;28;20029;-77
2022/05/26 13:15:06;;;;;;;3.72;1.83;;;691.50;1817.60;;;;;;5050332;28;20502;-76
2022/05/26 13:17:32;;;;;;;3.38;2.35;;;717.30;1689.60;;;;;;5050219;28;20113;-76
2022/05/26 13:20:04;;;;;;;6.15;3.20;;;716.80;1715.20;;;;;;5051396;28;20708;-75
2022/05/26 13:22:33;;;;;;;4.35;2.45;;;;;;;;;;5054927;28;20017;-76
2022/05/26 13:25:00;;;;;;;6.75;3.35;;;742.80;1587.20;;;;;;5055102;28;20075;-76
2022/05/26 13:27:28;;;;;;;4.70;2.30;;;;;;;;;;5055037;28;20049;-75
2022/05/26 13:33:07;;;;;;;7.22;3.97;;;;;;;;;;5054264;28;20048;-78
2022/05/26 13:35:29;;;;;;;4.55;1.58;;;819.40;1408.00;;;;;;5052435;28;20067;-78
2022/05/26 13:37:54;;;;;;;6.30;2.05;;;743.00;1587.20;;;;;;5054071;28;20032;-76
2022/05/26 13:40:25;;;;;;;5.82;2.78;;;;;;;;;;5053986;28;20033;-79
2022/05/26 13:42:51;;;;;;;9.32;1.75;;;;;;;;;;5053356;28;20051;-80
2022/05/26 13:45:25;;;;;;;3.35;1.50;;;;;;;;;;5054018;28;20028;-77
2022/05/26 13:47:52;;;;;;;4.13;1.83;;;;;;;;;;5051537;28;20024;-77
2022/05/26 13:50:28;;;;;;;2.55;1.55;;;;;;;;;;5053862;28;20384;-80
2022/05/26 13:52:54;;;;;;;3.55;1.70;;;;;;;;;;5053258;28;20028;-78
2022/05/26 13:55:23;;;;;;;3.92;1.65;;;691.60;1740.80;;;;;;5053284;28;20087;-78
2022/05/26 13:57:54;;;;;;;5.45;1.67;;;;;;;;;;5052329;28;20078;-78
2022/05/26 14:00:26;;;;;;;1.50;1.27;;;;;;;;;;5054583;28;20021;-78
2022/05/26 14:03:15;;;;;;;3.97;1.55;;;;;;;;;;5052495;28;20027;-79
2022/05/26 14:06:02;;;;;;;2.50;1.50;;;;;;;;;;5050474;28;20021;-75
2022/05/26 14:08:28;;;;;;;3.92;2.20;;;;;;;;;;5054430;28;20025;-75
2022/05/26 14:10:56;;;;;;;3.67;1.83;;;;;;;;;;5053791;28;20032;-76
2022/05/26 14:13:22;;;;;;;4.35;2.65;;;;;;;;;;5051674;28;20025;-75